createdAt,value
2018-06-10T00:02:25.881Z,13.50
2018-06-10T00:04:53.880Z,11.80
2018-06-10T00:07:21.878Z,12.83
2018-06-10T00:09:49.899Z,12.63
2018-06-10T00:12:17.876Z,11.47
2018-06-10T00:14:45.859Z,12.60
2018-06-10T00:17:13.878Z,13.37
2018-06-10T00:19:41.874Z,11.87
2018-06-10T00:22:09.908Z,13.47
2018-06-10T00:24:37.910Z,12.77
2018-06-10T00:27:05.911Z,12.37
2018-06-10T00:29:34.000Z,13.07
2018-06-10T00:32:02.036Z,13.93
2018-06-10T00:34:30.055Z,12.57
2018-06-10T00:36:58.066Z,12.00
2018-06-10T00:39:26.107Z,13.00
2018-06-10T00:41:54.114Z,11.97
2018-06-10T00:44:22.146Z,11.97
2018-06-10T00:46:50.154Z,12.40
2018-06-10T00:49:18.202Z,13.07
2018-06-10T00:51:56.976Z,12.17
2018-06-10T00:54:24.963Z,11.93
2018-06-10T00:56:53.434Z,12.53
2018-06-10T00:59:21.630Z,11.77
2018-06-10T01:01:49.657Z,12.73
2018-06-10T01:04:17.684Z,13.20
2018-06-10T01:06:45.690Z,12.00
2018-06-10T01:09:13.688Z,12.60
2018-06-10T01:11:41.682Z,12.60
2018-06-10T01:14:09.682Z,13.17
2018-06-10T01:16:37.716Z,12.13
2018-06-10T01:19:05.722Z,13.10
2018-06-10T01:21:33.714Z,13.33
2018-06-10T01:24:01.725Z,13.23
2018-06-10T01:26:35.159Z,13.80
2018-06-10T01:29:03.148Z,12.73
2018-06-10T01:31:31.184Z,12.97
2018-06-10T01:33:59.300Z,12.13
2018-06-10T01:36:27.375Z,13.27
2018-06-10T01:38:55.430Z,12.03
2018-06-10T01:41:23.434Z,13.47
2018-06-10T01:43:51.475Z,14.80
2018-06-10T01:46:19.471Z,12.57
2018-06-10T01:48:47.284Z,13.90
2018-06-10T01:51:15.366Z,13.77
2018-06-10T01:53:43.364Z,13.87
2018-06-10T01:56:11.374Z,14.10
2018-06-10T01:58:39.428Z,14.90
2018-06-10T02:01:07.452Z,14.13
2018-06-10T02:03:35.473Z,13.40
2018-06-10T02:06:03.600Z,14.13
2018-06-10T02:08:31.667Z,15.40
2018-06-10T02:10:59.699Z,14.73
2018-06-10T02:13:27.707Z,13.87
2018-06-10T02:15:55.877Z,14.27
2018-06-10T02:18:23.907Z,16.20
2018-06-10T02:20:51.894Z,14.57
2018-06-10T02:23:19.945Z,14.43
2018-06-10T02:25:47.957Z,15.57
2018-06-10T02:28:15.956Z,14.90
2018-06-10T02:30:43.999Z,16.23
2018-06-10T02:33:12.007Z,16.93
2018-06-10T02:35:40.015Z,16.20
2018-06-10T02:38:08.098Z,15.63
2018-06-10T02:40:36.112Z,16.00
2018-06-10T02:43:04.108Z,16.37
2018-06-10T02:45:32.106Z,16.40
2018-06-10T02:48:00.089Z,16.60
2018-06-10T02:50:28.077Z,17.37
2018-06-10T02:52:56.062Z,15.83
2018-06-10T02:55:24.065Z,16.90
2018-06-10T02:57:52.163Z,18.37
2018-06-10T03:00:20.244Z,17.70
2018-06-10T03:02:48.284Z,17.37
2018-06-10T03:05:16.379Z,15.60
2018-06-10T03:07:44.438Z,16.63
2018-06-10T03:10:12.429Z,17.70
2018-06-10T03:12:40.500Z,16.13
2018-06-10T03:15:08.491Z,15.90
2018-06-10T03:17:36.423Z,16.30
2018-06-10T03:20:04.418Z,15.83
2018-06-10T03:22:32.226Z,16.53
2018-06-10T03:25:00.242Z,15.60
2018-06-10T03:27:28.241Z,17.07
2018-06-10T03:29:56.263Z,17.63
2018-06-10T03:32:24.555Z,16.33
2018-06-10T03:34:52.580Z,18.47
2018-06-10T03:37:20.563Z,16.70
2018-06-10T03:39:48.635Z,16.07
2018-06-10T03:42:16.674Z,18.40
2018-06-10T03:44:44.717Z,16.20
2018-06-10T03:47:12.763Z,17.33
2018-06-10T03:49:40.776Z,17.83
2018-06-10T03:52:08.778Z,17.00
2018-06-10T03:54:36.861Z,16.50
2018-06-10T03:57:04.875Z,16.93
2018-06-10T03:59:32.915Z,17.07
2018-06-10T04:02:01.078Z,17.00
2018-06-10T04:04:29.341Z,18.20
2018-06-10T04:06:57.375Z,17.50
2018-06-10T04:09:25.359Z,16.53
2018-06-10T04:11:53.368Z,17.73
2018-06-10T04:14:21.433Z,18.60
2018-06-10T04:16:49.493Z,17.87
2018-06-10T04:19:17.493Z,18.50
2018-06-10T04:21:45.495Z,17.80
2018-06-10T04:24:13.504Z,15.00
2018-06-10T04:26:41.550Z,15.27
2018-06-10T04:29:09.548Z,16.70
2018-06-10T04:31:37.625Z,18.13
2018-06-10T04:34:05.631Z,17.40
2018-06-10T04:36:33.682Z,19.17
2018-06-10T04:39:01.685Z,17.17
2018-06-10T04:41:29.698Z,17.77
2018-06-10T04:43:57.722Z,18.53
2018-06-10T04:46:25.710Z,16.23
2018-06-10T04:48:53.714Z,17.40
2018-06-10T04:51:21.752Z,17.50
2018-06-10T04:53:49.756Z,18.50
2018-06-10T04:56:17.756Z,19.47
2018-06-10T04:58:45.786Z,17.53
2018-06-10T05:01:13.843Z,17.13
2018-06-10T05:03:41.926Z,19.23
2018-06-10T05:06:10.004Z,17.20
2018-06-10T05:08:38.017Z,16.43
2018-06-10T05:11:06.142Z,17.60
2018-06-10T05:13:34.215Z,16.47
2018-06-10T05:16:02.387Z,15.67
2018-06-10T05:18:30.382Z,15.50
2018-06-10T05:20:58.427Z,16.67
2018-06-10T05:23:26.449Z,17.30
2018-06-10T05:25:54.463Z,16.93
2018-06-10T05:28:22.445Z,15.47
2018-06-10T05:30:50.445Z,16.00
2018-06-10T05:33:18.454Z,15.13
2018-06-10T05:35:46.458Z,15.77
2018-06-10T05:38:14.430Z,16.37
2018-06-10T05:40:42.259Z,14.47
2018-06-10T05:43:10.259Z,16.80
2018-06-10T05:45:38.374Z,14.37
2018-06-10T05:48:06.622Z,15.87
2018-06-10T05:50:34.630Z,14.93
2018-06-10T05:53:02.975Z,15.17
2018-06-10T05:55:31.393Z,15.90
2018-06-10T05:57:59.758Z,16.40
2018-06-10T06:00:27.786Z,16.20
2018-06-10T06:02:55.830Z,17.43
2018-06-10T06:05:23.843Z,17.20
2018-06-10T06:07:51.838Z,17.20
2018-06-10T06:10:19.842Z,16.90
2018-06-10T06:12:47.847Z,15.37
2018-06-10T06:15:15.858Z,16.77
2018-06-10T06:17:43.949Z,16.33
2018-06-10T06:20:11.937Z,15.73
2018-06-10T06:22:39.967Z,16.30
2018-06-10T06:25:07.974Z,16.43
2018-06-10T06:27:36.087Z,16.97
2018-06-10T06:30:04.083Z,14.70
2018-06-10T06:32:32.283Z,15.60
2018-06-10T06:35:00.269Z,17.40
2018-06-10T06:37:28.285Z,14.13
2018-06-10T06:39:56.288Z,13.70
2018-06-10T06:42:24.330Z,13.10
2018-06-10T06:44:52.330Z,13.77
2018-06-10T06:47:20.353Z,12.80
2018-06-10T06:49:48.350Z,11.77
2018-06-10T06:52:16.348Z,12.13
2018-06-10T06:54:44.347Z,12.67
2018-06-10T06:57:12.434Z,11.77
2018-06-10T06:59:40.438Z,12.17
2018-06-10T07:02:08.511Z,13.10
2018-06-10T07:04:36.522Z,10.87
2018-06-10T07:07:04.531Z,12.20
2018-06-10T07:09:32.582Z,13.13
2018-06-10T07:12:00.766Z,12.57
2018-06-10T07:14:28.770Z,11.73
2018-06-10T07:16:56.868Z,13.70
2018-06-10T07:19:24.883Z,12.60
2018-06-10T07:21:52.974Z,12.37
2018-06-10T07:24:20.988Z,11.63
2018-06-10T07:26:49.012Z,11.70
2018-06-10T07:29:17.038Z,12.33
2018-06-10T07:31:45.103Z,12.07
2018-06-10T07:34:13.114Z,12.30
2018-06-10T07:36:41.115Z,11.47
2018-06-10T07:39:09.112Z,10.93
2018-06-10T07:41:37.190Z,10.77
2018-06-10T07:44:05.207Z,11.73
2018-06-10T07:46:33.243Z,12.83
2018-06-10T07:49:01.256Z,12.80
2018-06-10T07:51:29.273Z,12.43
2018-06-10T07:53:57.334Z,14.13
2018-06-10T07:56:32.175Z,13.23
2018-06-10T07:59:00.175Z,11.90
2018-06-10T08:01:28.197Z,13.30
2018-06-10T08:03:56.214Z,13.33
2018-06-10T08:06:24.227Z,12.33
2018-06-10T08:08:52.218Z,13.07
2018-06-10T08:11:20.227Z,12.17
2018-06-10T08:13:48.275Z,13.63
2018-06-10T08:16:16.531Z,11.43
2018-06-10T08:18:44.607Z,11.73
2018-06-10T08:21:12.583Z,11.30
2018-06-10T08:23:40.588Z,8.77
2018-06-10T08:26:08.579Z,9.40
2018-06-10T08:28:36.626Z,9.20
2018-06-10T08:31:04.647Z,9.50
2018-06-10T08:33:32.817Z,9.27
2018-06-10T08:36:00.830Z,9.10
2018-06-10T08:38:28.858Z,9.67
2018-06-10T08:40:56.850Z,8.90
2018-06-10T08:43:24.930Z,9.30
2018-06-10T08:45:52.939Z,8.53
2018-06-10T08:48:20.935Z,9.90
2018-06-10T08:50:49.055Z,9.03
2018-06-10T08:53:17.121Z,8.80
2018-06-10T08:55:45.200Z,9.73
2018-06-10T08:58:13.194Z,11.50
2018-06-10T09:00:41.291Z,9.57
2018-06-10T09:03:09.340Z,10.50
2018-06-10T09:05:37.344Z,10.13
2018-06-10T09:08:05.403Z,9.60
2018-06-10T09:10:33.388Z,9.70
2018-06-10T09:13:01.500Z,9.40
2018-06-10T09:15:29.509Z,11.37
2018-06-10T09:17:57.511Z,10.33
2018-06-10T09:20:25.681Z,10.90
2018-06-10T09:22:53.684Z,10.70
2018-06-10T09:25:21.720Z,9.77
2018-06-10T09:27:49.743Z,9.90
2018-06-10T09:30:17.836Z,11.20
2018-06-10T09:32:45.841Z,10.40
2018-06-10T09:35:13.850Z,11.33
2018-06-10T09:37:41.892Z,11.60
2018-06-10T09:40:09.895Z,10.30
2018-06-10T09:42:37.971Z,10.23
2018-06-10T09:45:06.949Z,11.13
2018-06-10T09:47:35.572Z,10.70
2018-06-10T09:50:03.626Z,11.13
2018-06-10T09:52:31.631Z,11.50
2018-06-10T09:54:59.649Z,11.33
2018-06-10T09:57:27.686Z,10.63
2018-06-10T09:59:55.756Z,10.77
2018-06-10T10:02:23.790Z,11.63
2018-06-10T10:04:51.890Z,10.90
2018-06-10T10:07:19.887Z,9.50
2018-06-10T10:09:47.916Z,11.00
2018-06-10T10:12:15.900Z,11.00
2018-06-10T10:14:44.012Z,10.13
2018-06-10T10:17:12.004Z,11.30
2018-06-10T10:19:40.005Z,9.87
2018-06-10T10:22:07.985Z,10.20
2018-06-10T10:24:36.009Z,9.43
2018-06-10T10:27:04.020Z,8.63
2018-06-10T10:29:32.053Z,8.83
2018-06-10T10:32:00.140Z,11.30
2018-06-10T10:34:28.135Z,11.60
2018-06-10T10:36:56.283Z,10.30
2018-06-10T10:39:24.266Z,9.90
2018-06-10T10:41:52.286Z,11.33
2018-06-10T10:44:20.365Z,11.07
2018-06-10T10:46:48.398Z,10.73
2018-06-10T10:49:16.460Z,10.00
2018-06-10T10:51:44.465Z,8.50
2018-06-10T10:54:12.546Z,9.20
2018-06-10T10:56:40.574Z,8.90
2018-06-10T10:59:08.626Z,8.33
2018-06-10T11:01:36.665Z,6.87
2018-06-10T11:04:04.666Z,8.20
2018-06-10T11:06:32.704Z,8.30
2018-06-10T11:09:00.713Z,8.80
2018-06-10T11:11:28.736Z,7.53
2018-06-10T11:13:56.738Z,7.27
2018-06-10T11:16:24.821Z,6.03
2018-06-10T11:18:52.810Z,6.70
2018-06-10T11:21:20.870Z,8.73
2018-06-10T11:23:48.910Z,8.20
2018-06-10T11:26:16.904Z,9.23
2018-06-10T11:28:44.921Z,7.90
2018-06-10T11:31:12.942Z,7.07
2018-06-10T11:33:40.946Z,7.17
2018-06-10T11:36:08.979Z,6.50
2018-06-10T11:38:36.984Z,6.03
2018-06-10T11:41:05.011Z,6.23
2018-06-10T11:43:33.018Z,5.70
2018-06-10T11:46:01.080Z,5.50
2018-06-10T11:48:29.050Z,5.67
2018-06-10T11:50:56.865Z,6.70
2018-06-10T11:53:25.019Z,5.63
2018-06-10T11:55:53.035Z,7.53
2018-06-10T11:58:21.050Z,6.80
2018-06-10T12:00:49.227Z,5.80
2018-06-10T12:03:17.248Z,6.93
2018-06-10T12:05:45.283Z,6.13
2018-06-10T12:08:13.295Z,5.47
2018-06-10T12:10:41.383Z,4.83
2018-06-10T12:13:10.188Z,5.37
2018-06-10T12:15:38.252Z,5.23
2018-06-10T12:18:06.254Z,5.40
2018-06-10T12:20:34.275Z,5.30
2018-06-10T12:23:02.280Z,5.27
2018-06-10T12:25:30.308Z,6.00
2018-06-10T12:27:58.677Z,5.23
2018-06-10T12:30:26.748Z,5.77
2018-06-10T12:32:54.767Z,5.43
2018-06-10T12:35:22.772Z,4.70
2018-06-10T12:37:50.800Z,5.77
2018-06-10T12:40:18.790Z,4.90
2018-06-10T12:42:46.848Z,4.33
2018-06-10T12:45:14.871Z,5.10
2018-06-10T12:47:42.934Z,4.97
2018-06-10T12:50:10.979Z,5.37
2018-06-10T12:52:39.024Z,4.43
2018-06-10T12:55:07.002Z,5.00
2018-06-10T12:57:35.048Z,4.87
2018-06-10T13:00:03.039Z,5.83
2018-06-10T13:02:31.167Z,8.00
2018-06-10T13:04:59.230Z,7.70
2018-06-10T13:07:27.248Z,7.30
2018-06-10T13:09:55.261Z,8.10
2018-06-10T13:12:23.292Z,8.67
2018-06-10T13:14:51.320Z,8.43
2018-06-10T13:17:19.335Z,8.33
2018-06-10T13:19:47.359Z,8.17
2018-06-10T13:22:15.366Z,8.40
2018-06-10T13:24:43.382Z,8.03
2018-06-10T13:27:11.412Z,7.50
2018-06-10T13:29:39.522Z,8.43
2018-06-10T13:32:07.550Z,7.67
2018-06-10T13:34:35.579Z,7.30
2018-06-10T13:37:03.586Z,8.70
2018-06-10T13:39:31.616Z,8.10
2018-06-10T13:41:59.610Z,7.80
2018-06-10T13:44:27.608Z,8.40
2018-06-10T13:46:55.614Z,8.83
2018-06-10T13:49:23.683Z,7.50
2018-06-10T13:51:51.739Z,8.83
2018-06-10T13:54:19.803Z,7.70
2018-06-10T13:56:47.864Z,8.30
2018-06-10T13:59:16.071Z,7.60
2018-06-10T14:01:44.098Z,7.93
2018-06-10T14:04:12.154Z,8.00
2018-06-10T14:06:40.184Z,8.53
2018-06-10T14:09:08.225Z,13.57
2018-06-10T14:11:36.272Z,8.67
2018-06-10T14:14:04.833Z,8.43
2018-06-10T14:16:32.867Z,8.73
2018-06-10T14:19:00.983Z,8.70
2018-06-10T14:21:29.061Z,8.43
2018-06-10T14:23:57.049Z,8.57
2018-06-10T14:26:25.078Z,8.63
2018-06-10T14:28:53.273Z,7.70
2018-06-10T14:31:21.375Z,8.33
2018-06-10T14:33:49.457Z,9.27
2018-06-10T14:36:17.454Z,7.90
2018-06-10T14:38:45.495Z,8.17
2018-06-10T14:41:13.525Z,8.20
2018-06-10T14:43:41.510Z,7.73
2018-06-10T14:46:09.531Z,8.50
2018-06-10T14:48:37.539Z,8.00
2018-06-10T14:51:05.564Z,8.00
2018-06-10T14:53:33.611Z,8.93
2018-06-10T14:56:01.608Z,8.40
2018-06-10T14:58:29.647Z,8.03
2018-06-10T15:00:57.644Z,7.53
2018-06-10T15:03:25.723Z,7.33
2018-06-10T15:05:53.787Z,6.60
2018-06-10T15:08:21.891Z,7.63
2018-06-10T15:10:49.896Z,6.83
2018-06-10T15:13:17.900Z,7.53
2018-06-10T15:15:45.899Z,7.00
2018-06-10T15:18:13.893Z,6.50
2018-06-10T15:20:41.884Z,7.13
2018-06-10T15:23:09.954Z,7.60
2018-06-10T15:25:37.938Z,8.40
2018-06-10T15:28:05.958Z,8.03
2018-06-10T15:30:34.052Z,8.23
2018-06-10T15:33:02.032Z,7.73
2018-06-10T15:35:30.020Z,7.80
2018-06-10T15:37:58.079Z,7.20
2018-06-10T15:40:26.077Z,7.47
2018-06-10T15:42:54.067Z,7.13
2018-06-10T15:45:22.116Z,6.17
2018-06-10T15:47:50.124Z,6.90
2018-06-10T15:50:18.183Z,8.73
2018-06-10T15:52:46.195Z,8.10
2018-06-10T15:55:14.192Z,8.40
2018-06-10T15:57:42.217Z,9.30
2018-06-10T16:00:10.229Z,8.67
2018-06-10T16:02:38.054Z,9.33
2018-06-10T16:05:06.143Z,9.00
2018-06-10T16:07:34.130Z,9.77
2018-06-10T16:10:02.115Z,10.10
2018-06-10T16:12:30.123Z,9.40
2018-06-10T16:14:58.119Z,10.47
2018-06-10T16:17:26.123Z,10.83
2018-06-10T16:19:54.110Z,11.20
2018-06-10T16:22:22.118Z,11.20
2018-06-10T16:24:50.105Z,11.40
2018-06-10T16:27:18.214Z,9.80
2018-06-10T16:29:46.223Z,10.43
2018-06-10T16:32:14.254Z,11.43
2018-06-10T16:34:42.316Z,10.13
2018-06-10T16:37:10.355Z,11.57
2018-06-10T16:39:38.389Z,11.10
2018-06-10T16:42:06.406Z,10.97
2018-06-10T16:44:34.411Z,9.67
2018-06-10T16:47:02.500Z,9.50
2018-06-10T16:49:30.531Z,10.50
2018-06-10T16:51:58.543Z,10.20
2018-06-10T16:54:26.546Z,11.00
2018-06-10T16:56:54.630Z,10.20
2018-06-10T16:59:22.661Z,12.40
2018-06-10T17:01:50.676Z,11.30
2018-06-10T17:04:18.700Z,11.50
2018-06-10T17:06:46.746Z,11.90
2018-06-10T17:09:14.791Z,11.70
2018-06-10T17:11:42.812Z,14.70
2018-06-10T17:14:10.852Z,22.17
2018-06-10T17:16:38.867Z,17.70
2018-06-10T17:19:06.878Z,13.50
2018-06-10T17:21:34.900Z,12.97
2018-06-10T17:24:02.962Z,14.20
2018-06-10T17:26:31.012Z,12.00
2018-06-10T17:28:59.030Z,12.10
2018-06-10T17:31:27.052Z,12.03
2018-06-10T17:33:55.040Z,12.50
2018-06-10T17:36:23.042Z,11.40
2018-06-10T17:38:51.093Z,12.03
2018-06-10T17:41:19.114Z,13.33
2018-06-10T17:43:47.128Z,12.07
2018-06-10T17:46:15.203Z,11.37
2018-06-10T17:48:43.268Z,9.53
2018-06-10T17:51:11.249Z,10.80
2018-06-10T17:53:39.439Z,11.73
2018-06-10T17:56:07.420Z,10.77
2018-06-10T17:58:35.431Z,10.13
2018-06-10T18:01:03.451Z,11.20
2018-06-10T18:03:31.494Z,11.37
2018-06-10T18:05:59.916Z,12.20
2018-06-10T18:08:27.907Z,10.73
2018-06-10T18:10:55.922Z,10.13
2018-06-10T18:13:25.235Z,13.07
2018-06-10T18:15:53.266Z,11.43
2018-06-10T18:18:21.274Z,10.90
2018-06-10T18:20:49.326Z,11.30
2018-06-10T18:23:17.359Z,10.67
2018-06-10T18:25:45.366Z,11.33
2018-06-10T18:28:13.368Z,10.40
2018-06-10T18:30:41.382Z,11.73
2018-06-10T18:33:09.484Z,10.03
2018-06-10T18:35:37.425Z,12.07
2018-06-10T18:38:05.432Z,12.97
2018-06-10T18:40:33.506Z,18.23
2018-06-10T18:43:01.696Z,17.10
2018-06-10T18:45:29.770Z,14.00
2018-06-10T18:47:57.772Z,13.60
2018-06-10T18:50:25.795Z,13.80
2018-06-10T18:52:53.830Z,12.20
2018-06-10T18:55:21.826Z,12.90
2018-06-10T18:57:49.842Z,11.40
2018-06-10T19:00:17.884Z,11.13
2018-06-10T19:02:45.897Z,11.23
2018-06-10T19:05:13.970Z,11.23
2018-06-10T19:07:42.004Z,13.47
2018-06-10T19:10:10.127Z,12.70
2018-06-10T19:12:38.135Z,13.03
2018-06-10T19:15:06.256Z,14.87
2018-06-10T19:17:34.284Z,13.70
2018-06-10T19:20:02.288Z,13.43
2018-06-10T19:22:30.312Z,13.07
2018-06-10T19:24:58.302Z,13.00
2018-06-10T19:27:26.302Z,13.10
2018-06-10T19:29:54.362Z,12.50
2018-06-10T19:32:22.455Z,12.43
2018-06-10T19:34:50.301Z,11.43
2018-06-10T19:37:18.353Z,12.10
2018-06-10T19:39:46.359Z,12.37
2018-06-10T19:42:14.407Z,13.00
2018-06-10T19:44:42.412Z,10.83
2018-06-10T19:47:10.442Z,11.60
2018-06-10T19:49:38.494Z,11.80
2018-06-10T19:52:06.492Z,12.30
2018-06-10T19:54:34.639Z,12.30
2018-06-10T19:57:02.647Z,12.50
2018-06-10T19:59:30.719Z,10.23
2018-06-10T20:01:58.722Z,11.97
2018-06-10T20:04:26.735Z,11.70
2018-06-10T20:06:54.760Z,12.60
2018-06-10T20:09:22.780Z,12.83
2018-06-10T20:11:50.778Z,12.07
2018-06-10T20:14:18.789Z,10.80
2018-06-10T20:16:46.804Z,10.57
2018-06-10T20:19:14.827Z,12.23
2018-06-10T20:21:42.818Z,11.80
2018-06-10T20:24:10.840Z,12.00
2018-06-10T20:26:38.887Z,12.90
2018-06-10T20:29:06.884Z,11.10
2018-06-10T20:31:34.883Z,10.73
2018-06-10T20:34:02.879Z,10.70
2018-06-10T20:36:30.889Z,11.40
2018-06-10T20:38:58.893Z,10.87
2018-06-10T20:41:26.914Z,11.00
2018-06-10T20:43:54.913Z,11.07
2018-06-10T20:46:22.954Z,10.80
2018-06-10T20:48:50.983Z,10.60
2018-06-10T20:51:19.051Z,12.53
2018-06-10T20:53:47.038Z,11.27
2018-06-10T20:56:15.110Z,11.57
2018-06-10T20:58:43.162Z,11.13
2018-06-10T21:01:11.261Z,10.53
2018-06-10T21:03:39.311Z,10.47
2018-06-10T21:06:07.388Z,11.93
2018-06-10T21:08:35.383Z,11.90
2018-06-10T21:11:03.401Z,10.07
2018-06-10T21:13:31.502Z,10.60
2018-06-10T21:15:59.501Z,10.23
2018-06-10T21:18:27.346Z,9.83
2018-06-10T21:20:55.412Z,10.03
2018-06-10T21:23:23.487Z,9.70
2018-06-10T21:25:51.556Z,10.97
2018-06-10T21:28:19.676Z,9.50
2018-06-10T21:30:47.662Z,9.53
2018-06-10T21:33:15.664Z,9.57
2018-06-10T21:35:43.667Z,9.57
2018-06-10T21:38:11.676Z,8.97
2018-06-10T21:40:39.711Z,9.83
2018-06-10T21:43:07.720Z,9.43
2018-06-10T21:45:35.741Z,9.27
2018-06-10T21:48:03.764Z,8.83
2018-06-10T21:50:31.843Z,7.80
2018-06-10T21:52:59.846Z,9.00
2018-06-10T21:55:27.853Z,9.90
2018-06-10T21:57:55.864Z,8.83
2018-06-10T22:00:24.963Z,8.47
2018-06-10T22:02:53.126Z,8.07
2018-06-10T22:05:21.290Z,9.20
2018-06-10T22:07:49.286Z,8.37
2018-06-10T22:10:17.206Z,9.57
2018-06-10T22:12:45.194Z,8.53
2018-06-10T22:15:13.186Z,9.77
2018-06-10T22:17:41.243Z,9.37
2018-06-10T22:20:09.244Z,9.80
2018-06-10T22:22:37.271Z,9.30
2018-06-10T22:25:05.356Z,8.53
2018-06-10T22:27:33.360Z,8.90
2018-06-10T22:30:01.397Z,10.37
2018-06-10T22:32:29.396Z,9.80
2018-06-10T22:34:57.401Z,9.50
2018-06-10T22:37:25.415Z,10.33
2018-06-10T22:39:53.405Z,9.20
2018-06-10T22:42:21.460Z,10.73
2018-06-10T22:44:49.281Z,10.60
2018-06-10T22:47:17.312Z,9.53
2018-06-10T22:49:45.295Z,9.63
2018-06-10T22:52:13.328Z,10.07
2018-06-10T22:54:44.255Z,10.20
2018-06-10T22:57:12.324Z,9.33
2018-06-10T22:59:40.322Z,8.77
2018-06-10T23:02:09.132Z,8.90
2018-06-10T23:04:37.133Z,10.50
2018-06-10T23:07:05.253Z,10.17
2018-06-10T23:09:33.202Z,9.77
2018-06-10T23:12:01.198Z,10.47
2018-06-10T23:14:29.210Z,10.40
2018-06-10T23:16:57.218Z,10.70
2018-06-10T23:19:26.291Z,9.80
2018-06-10T23:21:54.177Z,10.60
2018-06-10T23:24:22.186Z,10.23
2018-06-10T23:26:50.221Z,9.50
2018-06-10T23:29:18.278Z,9.80
2018-06-10T23:31:46.275Z,10.87
2018-06-10T23:34:14.291Z,9.80
2018-06-10T23:36:42.346Z,9.50
2018-06-10T23:39:10.383Z,10.27
2018-06-10T23:41:38.482Z,10.30
2018-06-10T23:44:06.575Z,10.67
2018-06-10T23:46:34.575Z,10.30
2018-06-10T23:49:02.636Z,9.40
2018-06-10T23:51:30.682Z,9.60
2018-06-10T23:53:58.720Z,10.63
2018-06-10T23:56:26.744Z,10.40
2018-06-10T23:58:54.961Z,9.83
